sensor_id;sensor_type;location;lat;lon;timestamp;pressure;altitude;pressure_sealevel;temperature;humidity
25869;BME280;13688;53.154;18.136;2023-07-31T00:01:38;100285.56;;;16.53;100.00
25869;BME280;13688;53.154;18.136;2023-07-31T00:07:00;100292.02;;;16.52;100.00
25869;BME280;13688;53.154;18.136;2023-07-31T00:12:23;100295.57;;;16.52;100.00
25869;BME280;13688;53.154;18.136;2023-07-31T00:17:45;100294.90;;;16.50;100.00
25869;BME280;13688;53.154;18.136;2023-07-31T00:23:08;100293.03;;;16.51;100.00
25869;BME280;13688;53.154;18.136;2023-07-31T00:28:30;100297.92;;;16.47;100.00
25869;BME280;13688;53.154;18.136;2023-07-31T00:33:52;100295.73;;;16.43;100.00
25869;BME280;13688;53.154;18.136;2023-07-31T00:39:15;100291.15;;;16.43;100.00
25869;BME280;13688;53.154;18.136;2023-07-31T00:44:39;100291.46;;;16.40;100.00
25869;BME280;13688;53.154;18.136;2023-07-31T00:50:01;100299.62;;;16.48;100.00
25869;BME280;13688;53.154;18.136;2023-07-31T00:55:24;100295.89;;;16.49;100.00
25869;BME280;13688;53.154;18.136;2023-07-31T01:00:48;100305.89;;;16.49;100.00
25869;BME280;13688;53.154;18.136;2023-07-31T01:06:27;100310.14;;;16.43;100.00
25869;BME280;13688;53.154;18.136;2023-07-31T01:12:00;100308.60;;;16.33;100.00
25869;BME280;13688;53.154;18.136;2023-07-31T01:17:24;100309.06;;;16.12;100.00
25869;BME280;13688;53.154;18.136;2023-07-31T01:23:17;100318.15;;;15.94;100.00
25869;BME280;13688;53.154;18.136;2023-07-31T01:29:03;100327.43;;;15.84;100.00
25869;BME280;13688;53.154;18.136;2023-07-31T01:34:28;100324.17;;;15.80;100.00
25869;BME280;13688;53.154;18.136;2023-07-31T01:39:51;100323.27;;;15.63;100.00
25869;BME280;13688;53.154;18.136;2023-07-31T01:45:15;100327.02;;;15.44;100.00
25869;BME280;13688;53.154;18.136;2023-07-31T01:50:37;100316.59;;;15.32;100.00
25869;BME280;13688;53.154;18.136;2023-07-31T01:56:00;100317.77;;;15.29;100.00
25869;BME280;13688;53.154;18.136;2023-07-31T02:01:22;100321.82;;;15.25;100.00
25869;BME280;13688;53.154;18.136;2023-07-31T02:06:45;100326.52;;;15.23;100.00
25869;BME280;13688;53.154;18.136;2023-07-31T02:12:09;100321.05;;;15.15;100.00
25869;BME280;13688;53.154;18.136;2023-07-31T02:17:31;100327.44;;;15.06;100.00
25869;BME280;13688;53.154;18.136;2023-07-31T02:22:53;100321.47;;;15.02;100.00
25869;BME280;13688;53.154;18.136;2023-07-31T02:28:16;100327.53;;;14.96;100.00
25869;BME280;13688;53.154;18.136;2023-07-31T02:33:39;100326.22;;;14.82;100.00
25869;BME280;13688;53.154;18.136;2023-07-31T02:39:02;100330.55;;;14.75;100.00
25869;BME280;13688;53.154;18.136;2023-07-31T02:44:24;100337.12;;;14.73;100.00
25869;BME280;13688;53.154;18.136;2023-07-31T02:49:47;100342.78;;;14.62;100.00
25869;BME280;13688;53.154;18.136;2023-07-31T02:55:09;100343.70;;;14.52;100.00
25869;BME280;13688;53.154;18.136;2023-07-31T03:00:32;100337.28;;;14.53;100.00
25869;BME280;13688;53.154;18.136;2023-07-31T03:05:56;100343.70;;;14.52;100.00
25869;BME280;13688;53.154;18.136;2023-07-31T03:11:18;100337.88;;;14.47;100.00
25869;BME280;13688;53.154;18.136;2023-07-31T03:16:41;100337.60;;;14.50;100.00
25869;BME280;13688;53.154;18.136;2023-07-31T03:22:04;100336.63;;;14.42;100.00
25869;BME280;13688;53.154;18.136;2023-07-31T03:27:27;100341.51;;;14.38;100.00
25869;BME280;13688;53.154;18.136;2023-07-31T03:32:49;100345.75;;;14.41;100.00
25869;BME280;13688;53.154;18.136;2023-07-31T03:38:12;100355.56;;;14.42;100.00
25869;BME280;13688;53.154;18.136;2023-07-31T03:43:34;100361.83;;;14.42;100.00
25869;BME280;13688;53.154;18.136;2023-07-31T03:48:57;100363.39;;;14.45;100.00
25869;BME280;13688;53.154;18.136;2023-07-31T03:54:19;100362.64;;;14.52;100.00
25869;BME280;13688;53.154;18.136;2023-07-31T03:59:42;100368.45;;;14.57;100.00
25869;BME280;13688;53.154;18.136;2023-07-31T04:05:04;100363.58;;;14.61;100.00
25869;BME280;13688;53.154;18.136;2023-07-31T04:10:27;100365.13;;;14.81;100.00
25869;BME280;13688;53.154;18.136;2023-07-31T04:15:51;100360.22;;;15.03;100.00
25869;BME280;13688;53.154;18.136;2023-07-31T04:21:13;100352.69;;;15.14;100.00
25869;BME280;13688;53.154;18.136;2023-07-31T04:26:36;100361.30;;;15.10;100.00
25869;BME280;13688;53.154;18.136;2023-07-31T04:31:58;100355.20;;;15.08;100.00
25869;BME280;13688;53.154;18.136;2023-07-31T04:37:21;100348.38;;;15.04;100.00
25869;BME280;13688;53.154;18.136;2023-07-31T04:42:43;100350.56;;;15.00;100.00
25869;BME280;13688;53.154;18.136;2023-07-31T04:48:06;100350.23;;;15.03;100.00
25869;BME280;13688;53.154;18.136;2023-07-31T04:53:28;100350.64;;;15.08;100.00
25869;BME280;13688;53.154;18.136;2023-07-31T04:58:50;100356.16;;;15.25;100.00
25869;BME280;13688;53.154;18.136;2023-07-31T05:04:13;100360.48;;;15.35;100.00
25869;BME280;13688;53.154;18.136;2023-07-31T05:09:36;100361.26;;;15.54;100.00
25869;BME280;13688;53.154;18.136;2023-07-31T05:14:58;100361.09;;;15.73;100.00
25869;BME280;13688;53.154;18.136;2023-07-31T05:20:21;100370.92;;;15.74;100.00
25869;BME280;13688;53.154;18.136;2023-07-31T05:25:44;100364.03;;;15.88;100.00
25869;BME280;13688;53.154;18.136;2023-07-31T05:31:07;100370.47;;;15.87;100.00
25869;BME280;13688;53.154;18.136;2023-07-31T05:36:31;100353.14;;;15.80;100.00
25869;BME280;13688;53.154;18.136;2023-07-31T05:41:53;100364.72;;;15.90;100.00
25869;BME280;13688;53.154;18.136;2023-07-31T05:47:16;100362.25;;;16.05;100.00
25869;BME280;13688;53.154;18.136;2023-07-31T05:52:38;100348.11;;;16.35;100.00
25869;BME280;13688;53.154;18.136;2023-07-31T05:58:01;100349.16;;;16.42;100.00
25869;BME280;13688;53.154;18.136;2023-07-31T06:03:23;100338.66;;;16.55;100.00
25869;BME280;13688;53.154;18.136;2023-07-31T06:08:46;100347.31;;;16.67;100.00
25869;BME280;13688;53.154;18.136;2023-07-31T06:14:08;100354.50;;;16.84;100.00
25869;BME280;13688;53.154;18.136;2023-07-31T06:19:31;100362.13;;;16.97;100.00
25869;BME280;13688;53.154;18.136;2023-07-31T06:24:53;100353.84;;;16.91;100.00
25869;BME280;13688;53.154;18.136;2023-07-31T06:30:16;100357.40;;;16.91;100.00
25869;BME280;13688;53.154;18.136;2023-07-31T06:35:39;100368.59;;;16.96;100.00
25869;BME280;13688;53.154;18.136;2023-07-31T06:41:01;100358.23;;;17.16;100.00
25869;BME280;13688;53.154;18.136;2023-07-31T06:46:24;100354.48;;;17.25;100.00
25869;BME280;13688;53.154;18.136;2023-07-31T06:51:47;100362.80;;;17.40;100.00
25869;BME280;13688;53.154;18.136;2023-07-31T06:57:10;100347.47;;;17.55;100.00
25869;BME280;13688;53.154;18.136;2023-07-31T07:02:32;100347.04;;;17.99;100.00
25869;BME280;13688;53.154;18.136;2023-07-31T07:07:57;100357.05;;;18.07;100.00
25869;BME280;13688;53.154;18.136;2023-07-31T07:13:19;100348.91;;;17.98;100.00
25869;BME280;13688;53.154;18.136;2023-07-31T07:18:42;100348.70;;;18.08;100.00
25869;BME280;13688;53.154;18.136;2023-07-31T07:24:06;100361.64;;;18.06;100.00
25869;BME280;13688;53.154;18.136;2023-07-31T07:29:28;100354.02;;;17.93;100.00
25869;BME280;13688;53.154;18.136;2023-07-31T07:34:50;100357.68;;;18.17;100.00
25869;BME280;13688;53.154;18.136;2023-07-31T07:40:14;100352.28;;;18.40;100.00
25869;BME280;13688;53.154;18.136;2023-07-31T07:45:37;100361.95;;;18.42;100.00
25869;BME280;13688;53.154;18.136;2023-07-31T07:50:59;100359.13;;;18.67;100.00
25869;BME280;13688;53.154;18.136;2023-07-31T07:56:23;100353.33;;;18.93;100.00
25869;BME280;13688;53.154;18.136;2023-07-31T08:01:47;100357.05;;;19.14;100.00
25869;BME280;13688;53.154;18.136;2023-07-31T08:07:12;100358.22;;;18.97;100.00
25869;BME280;13688;53.154;18.136;2023-07-31T08:12:35;100357.98;;;18.84;100.00
25869;BME280;13688;53.154;18.136;2023-07-31T08:17:58;100354.52;;;18.67;100.00
25869;BME280;13688;53.154;18.136;2023-07-31T08:23:21;100353.91;;;18.80;100.00
25869;BME280;13688;53.154;18.136;2023-07-31T08:28:44;100348.41;;;18.88;100.00
25869;BME280;13688;53.154;18.136;2023-07-31T08:34:07;100352.78;;;18.74;98.40
25869;BME280;13688;53.154;18.136;2023-07-31T08:39:30;100352.23;;;19.02;100.00
25869;BME280;13688;53.154;18.136;2023-07-31T08:44:53;100342.70;;;19.21;98.19
25869;BME280;13688;53.154;18.136;2023-07-31T08:50:21;100343.55;;;19.21;96.33
25869;BME280;13688;53.154;18.136;2023-07-31T08:55:44;100339.99;;;19.35;95.81
25869;BME280;13688;53.154;18.136;2023-07-31T09:01:10;100333.05;;;19.48;90.08
25869;BME280;13688;53.154;18.136;2023-07-31T09:06:36;100336.38;;;19.58;89.47
25869;BME280;13688;53.154;18.136;2023-07-31T09:11:59;100328.73;;;19.53;87.97
25869;BME280;13688;53.154;18.136;2023-07-31T09:17:30;100321.91;;;19.72;86.57
25869;BME280;13688;53.154;18.136;2023-07-31T09:22:54;100329.53;;;19.62;86.23
25869;BME280;13688;53.154;18.136;2023-07-31T09:28:30;100311.65;;;19.74;89.47
25869;BME280;13688;53.154;18.136;2023-07-31T09:33:54;100302.69;;;19.95;89.59
25869;BME280;13688;53.154;18.136;2023-07-31T09:39:18;100293.45;;;20.11;91.44
25869;BME280;13688;53.154;18.136;2023-07-31T09:44:46;100293.27;;;19.97;93.74
25869;BME280;13688;53.154;18.136;2023-07-31T09:50:14;100295.09;;;19.76;94.52
25869;BME280;13688;53.154;18.136;2023-07-31T09:55:40;100291.33;;;19.77;95.39
25869;BME280;13688;53.154;18.136;2023-07-31T10:01:04;100274.78;;;19.63;96.00
25869;BME280;13688;53.154;18.136;2023-07-31T10:06:30;100274.28;;;19.45;99.45
25869;BME280;13688;53.154;18.136;2023-07-31T10:11:56;100293.39;;;18.93;100.00
25869;BME280;13688;53.154;18.136;2023-07-31T10:17:21;100301.27;;;18.02;100.00
25869;BME280;13688;53.154;18.136;2023-07-31T10:22:44;100305.72;;;17.48;100.00
25869;BME280;13688;53.154;18.136;2023-07-31T10:28:07;100290.09;;;17.42;100.00
25869;BME280;13688;53.154;18.136;2023-07-31T10:33:31;100279.41;;;17.40;100.00
25869;BME280;13688;53.154;18.136;2023-07-31T10:38:57;100276.08;;;17.78;100.00
25869;BME280;13688;53.154;18.136;2023-07-31T10:44:22;100263.95;;;18.19;100.00
25869;BME280;13688;53.154;18.136;2023-07-31T10:49:45;100251.91;;;18.59;100.00
25869;BME280;13688;53.154;18.136;2023-07-31T10:55:25;100241.11;;;18.74;100.00
25869;BME280;13688;53.154;18.136;2023-07-31T11:00:51;100227.65;;;19.25;100.00
25869;BME280;13688;53.154;18.136;2023-07-31T11:06:16;100222.56;;;19.81;100.00
25869;BME280;13688;53.154;18.136;2023-07-31T11:11:39;100212.95;;;19.85;100.00
25869;BME280;13688;53.154;18.136;2023-07-31T11:17:06;100210.16;;;19.79;100.00
25869;BME280;13688;53.154;18.136;2023-07-31T11:22:27;100199.55;;;19.69;100.00
25869;BME280;13688;53.154;18.136;2023-07-31T11:27:51;100202.74;;;19.43;100.00
25869;BME280;13688;53.154;18.136;2023-07-31T11:33:17;100210.16;;;19.05;100.00
25869;BME280;13688;53.154;18.136;2023-07-31T11:38:40;100214.45;;;18.84;100.00
25869;BME280;13688;53.154;18.136;2023-07-31T11:44:07;100216.87;;;18.79;100.00
25869;BME280;13688;53.154;18.136;2023-07-31T11:49:31;100209.81;;;18.70;100.00
25869;BME280;13688;53.154;18.136;2023-07-31T11:54:54;100216.22;;;18.77;100.00
25869;BME280;13688;53.154;18.136;2023-07-31T12:00:20;100208.44;;;18.89;100.00
25869;BME280;13688;53.154;18.136;2023-07-31T12:05:44;100201.22;;;18.96;100.00
25869;BME280;13688;53.154;18.136;2023-07-31T12:11:09;100206.78;;;19.03;100.00
25869;BME280;13688;53.154;18.136;2023-07-31T12:16:35;100206.41;;;19.06;100.00
25869;BME280;13688;53.154;18.136;2023-07-31T12:22:00;100205.70;;;18.74;100.00
25869;BME280;13688;53.154;18.136;2023-07-31T12:27:32;100191.17;;;18.97;100.00
25869;BME280;13688;53.154;18.136;2023-07-31T12:32:54;100185.44;;;19.51;100.00
25869;BME280;13688;53.154;18.136;2023-07-31T12:38:21;100183.05;;;19.77;100.00
25869;BME280;13688;53.154;18.136;2023-07-31T12:43:45;100176.67;;;19.55;100.00
25869;BME280;13688;53.154;18.136;2023-07-31T12:49:08;100182.06;;;19.34;100.00
25869;BME280;13688;53.154;18.136;2023-07-31T12:54:33;100172.75;;;18.84;100.00
25869;BME280;13688;53.154;18.136;2023-07-31T13:00:07;100168.16;;;18.62;100.00
25869;BME280;13688;53.154;18.136;2023-07-31T13:05:30;100165.86;;;18.36;100.00
25869;BME280;13688;53.154;18.136;2023-07-31T13:11:08;100176.37;;;18.39;100.00
25869;BME280;13688;53.154;18.136;2023-07-31T13:16:31;100188.70;;;18.03;100.00
25869;BME280;13688;53.154;18.136;2023-07-31T13:21:53;100191.55;;;17.48;100.00
25869;BME280;13688;53.154;18.136;2023-07-31T13:27:16;100181.98;;;17.21;100.00
25869;BME280;13688;53.154;18.136;2023-07-31T13:32:39;100185.72;;;17.20;100.00
25869;BME280;13688;53.154;18.136;2023-07-31T13:38:01;100180.77;;;17.24;100.00
25869;BME280;13688;53.154;18.136;2023-07-31T13:43:24;100174.91;;;17.43;100.00
25869;BME280;13688;53.154;18.136;2023-07-31T13:48:46;100180.14;;;17.53;100.00
25869;BME280;13688;53.154;18.136;2023-07-31T13:54:11;100171.62;;;17.56;100.00
25869;BME280;13688;53.154;18.136;2023-07-31T13:59:33;100168.90;;;17.56;100.00
25869;BME280;13688;53.154;18.136;2023-07-31T14:04:58;100162.24;;;17.66;100.00
25869;BME280;13688;53.154;18.136;2023-07-31T14:10:22;100161.02;;;17.77;100.00
25869;BME280;13688;53.154;18.136;2023-07-31T14:15:46;100147.00;;;17.88;100.00
25869;BME280;13688;53.154;18.136;2023-07-31T14:21:10;100152.86;;;17.77;100.00
25869;BME280;13688;53.154;18.136;2023-07-31T14:26:33;100157.80;;;17.65;100.00
25869;BME280;13688;53.154;18.136;2023-07-31T14:31:55;100152.44;;;17.57;100.00
25869;BME280;13688;53.154;18.136;2023-07-31T14:37:18;100156.70;;;17.52;100.00
25869;BME280;13688;53.154;18.136;2023-07-31T14:42:42;100144.61;;;17.54;100.00
25869;BME280;13688;53.154;18.136;2023-07-31T14:48:05;100149.35;;;17.60;100.00
25869;BME280;13688;53.154;18.136;2023-07-31T14:53:27;100147.48;;;17.61;100.00
25869;BME280;13688;53.154;18.136;2023-07-31T14:58:50;100144.20;;;17.73;100.00
25869;BME280;13688;53.154;18.136;2023-07-31T15:04:13;100136.55;;;18.00;100.00
25869;BME280;13688;53.154;18.136;2023-07-31T15:09:36;100136.42;;;18.16;100.00
25869;BME280;13688;53.154;18.136;2023-07-31T15:15:00;100123.85;;;18.53;100.00
25869;BME280;13688;53.154;18.136;2023-07-31T15:20:23;100116.86;;;18.88;100.00
25869;BME280;13688;53.154;18.136;2023-07-31T15:25:45;100092.38;;;19.96;100.00
25869;BME280;13688;53.154;18.136;2023-07-31T15:31:08;100082.23;;;20.96;100.00
25869;BME280;13688;53.154;18.136;2023-07-31T15:36:32;100090.45;;;21.02;100.00
25869;BME280;13688;53.154;18.136;2023-07-31T15:41:57;100088.88;;;20.03;100.00
25869;BME280;13688;53.154;18.136;2023-07-31T15:47:21;100093.09;;;19.48;100.00
25869;BME280;13688;53.154;18.136;2023-07-31T15:52:43;100091.16;;;19.41;100.00
25869;BME280;13688;53.154;18.136;2023-07-31T15:58:06;100083.31;;;19.53;100.00
25869;BME280;13688;53.154;18.136;2023-07-31T16:03:29;100077.83;;;19.32;100.00
25869;BME280;13688;53.154;18.136;2023-07-31T16:08:52;100077.97;;;18.94;100.00
25869;BME280;13688;53.154;18.136;2023-07-31T16:14:15;100075.15;;;18.87;100.00
25869;BME280;13688;53.154;18.136;2023-07-31T16:30:19;100076.19;;;18.86;100.00
25869;BME280;13688;53.154;18.136;2023-07-31T16:35:42;100078.90;;;18.72;100.00
25869;BME280;13688;53.154;18.136;2023-07-31T16:41:05;100064.09;;;18.74;100.00
25869;BME280;13688;53.154;18.136;2023-07-31T16:46:28;100061.91;;;18.84;100.00
25869;BME280;13688;53.154;18.136;2023-07-31T16:51:52;100052.38;;;19.10;100.00
25869;BME280;13688;53.154;18.136;2023-07-31T16:57:15;100034.05;;;20.25;100.00
25869;BME280;13688;53.154;18.136;2023-07-31T17:02:38;100031.75;;;21.33;100.00
25869;BME280;13688;53.154;18.136;2023-07-31T17:08:01;100018.72;;;20.52;100.00
25869;BME280;13688;53.154;18.136;2023-07-31T17:13:24;100018.97;;;20.99;100.00
25869;BME280;13688;53.154;18.136;2023-07-31T17:18:47;100014.72;;;20.90;100.00
25869;BME280;13688;53.154;18.136;2023-07-31T17:24:10;100021.41;;;20.18;100.00
25869;BME280;13688;53.154;18.136;2023-07-31T17:29:34;100021.73;;;19.80;100.00
25869;BME280;13688;53.154;18.136;2023-07-31T17:34:56;100019.55;;;19.54;100.00
25869;BME280;13688;53.154;18.136;2023-07-31T17:40:22;100016.86;;;19.39;100.00
25869;BME280;13688;53.154;18.136;2023-07-31T17:45:45;100039.86;;;19.30;100.00
25869;BME280;13688;53.154;18.136;2023-07-31T17:51:08;100026.70;;;19.19;100.00
25869;BME280;13688;53.154;18.136;2023-07-31T17:56:30;100037.16;;;19.15;100.00
25869;BME280;13688;53.154;18.136;2023-07-31T18:01:57;100031.62;;;19.09;100.00
25869;BME280;13688;53.154;18.136;2023-07-31T18:07:21;100035.32;;;19.01;100.00
25869;BME280;13688;53.154;18.136;2023-07-31T18:12:43;100048.66;;;18.96;100.00
25869;BME280;13688;53.154;18.136;2023-07-31T18:18:06;100038.70;;;18.88;100.00
25869;BME280;13688;53.154;18.136;2023-07-31T18:23:31;100046.42;;;18.85;100.00
25869;BME280;13688;53.154;18.136;2023-07-31T18:28:54;100044.73;;;18.84;100.00
25869;BME280;13688;53.154;18.136;2023-07-31T18:34:17;100041.91;;;18.77;100.00
25869;BME280;13688;53.154;18.136;2023-07-31T18:39:39;100032.89;;;18.77;100.00
25869;BME280;13688;53.154;18.136;2023-07-31T18:45:02;100016.09;;;18.73;100.00
25869;BME280;13688;53.154;18.136;2023-07-31T18:50:25;100016.09;;;18.73;100.00
25869;BME280;13688;53.154;18.136;2023-07-31T18:55:48;100014.67;;;18.63;100.00
25869;BME280;13688;53.154;18.136;2023-07-31T19:01:11;100011.94;;;18.48;100.00
25869;BME280;13688;53.154;18.136;2023-07-31T19:06:36;100008.07;;;18.42;100.00
25869;BME280;13688;53.154;18.136;2023-07-31T19:11:59;99996.83;;;18.45;100.00
25869;BME280;13688;53.154;18.136;2023-07-31T19:17:22;99986.98;;;18.44;100.00
25869;BME280;13688;53.154;18.136;2023-07-31T19:22:48;99987.44;;;18.48;100.00
25869;BME280;13688;53.154;18.136;2023-07-31T19:28:11;99970.80;;;18.43;100.00
25869;BME280;13688;53.154;18.136;2023-07-31T19:33:34;99969.12;;;18.42;100.00
25869;BME280;13688;53.154;18.136;2023-07-31T19:38:56;99956.28;;;18.36;100.00
25869;BME280;13688;53.154;18.136;2023-07-31T19:44:20;99974.77;;;18.25;100.00
25869;BME280;13688;53.154;18.136;2023-07-31T19:49:42;99978.03;;;18.21;100.00
25869;BME280;13688;53.154;18.136;2023-07-31T19:55:05;99972.13;;;18.17;100.00
25869;BME280;13688;53.154;18.136;2023-07-31T20:00:28;99964.52;;;18.13;100.00
25869;BME280;13688;53.154;18.136;2023-07-31T20:05:51;99969.50;;;18.09;100.00
25869;BME280;13688;53.154;18.136;2023-07-31T20:11:14;99955.05;;;18.09;100.00
25869;BME280;13688;53.154;18.136;2023-07-31T20:16:36;99953.91;;;18.03;100.00
25869;BME280;13688;53.154;18.136;2023-07-31T20:22:01;99950.72;;;17.99;100.00
25869;BME280;13688;53.154;18.136;2023-07-31T20:27:25;99948.47;;;17.88;100.00
25869;BME280;13688;53.154;18.136;2023-07-31T20:32:48;99936.09;;;17.86;100.00
25869;BME280;13688;53.154;18.136;2023-07-31T20:38:12;99919.09;;;17.84;100.00
25869;BME280;13688;53.154;18.136;2023-07-31T20:43:34;99924.34;;;17.85;100.00
25869;BME280;13688;53.154;18.136;2023-07-31T20:48:57;99919.77;;;17.86;100.00
25869;BME280;13688;53.154;18.136;2023-07-31T20:54:19;99908.02;;;17.85;100.00
25869;BME280;13688;53.154;18.136;2023-07-31T20:59:42;99914.60;;;17.91;100.00
25869;BME280;13688;53.154;18.136;2023-07-31T21:05:04;99907.94;;;17.93;100.00
25869;BME280;13688;53.154;18.136;2023-07-31T21:10:27;99898.48;;;17.89;100.00
25869;BME280;13688;53.154;18.136;2023-07-31T21:15:55;99903.91;;;17.89;100.00
25869;BME280;13688;53.154;18.136;2023-07-31T21:21:15;99892.84;;;17.91;100.00
25869;BME280;13688;53.154;18.136;2023-07-31T21:26:38;99890.23;;;17.97;100.00
25869;BME280;13688;53.154;18.136;2023-07-31T21:32:00;99881.30;;;18.03;100.00
25869;BME280;13688;53.154;18.136;2023-07-31T21:37:23;99881.14;;;18.05;100.00
25869;BME280;13688;53.154;18.136;2023-07-31T21:42:51;99875.50;;;18.07;100.00
25869;BME280;13688;53.154;18.136;2023-07-31T21:48:11;99875.77;;;18.12;100.00
25869;BME280;13688;53.154;18.136;2023-07-31T21:53:34;99862.45;;;18.17;100.00
25869;BME280;13688;53.154;18.136;2023-07-31T21:58:56;99861.03;;;18.21;100.00
25869;BME280;13688;53.154;18.136;2023-07-31T22:04:19;99850.23;;;18.27;100.00
25869;BME280;13688;53.154;18.136;2023-07-31T22:09:41;99847.61;;;18.34;100.00
25869;BME280;13688;53.154;18.136;2023-07-31T22:15:04;99840.73;;;18.38;100.00
25869;BME280;13688;53.154;18.136;2023-07-31T22:20:27;99836.59;;;18.42;100.00
25869;BME280;13688;53.154;18.136;2023-07-31T22:25:50;99830.58;;;18.47;100.00
25869;BME280;13688;53.154;18.136;2023-07-31T22:31:13;99814.70;;;18.50;100.00
25869;BME280;13688;53.154;18.136;2023-07-31T22:36:36;99816.21;;;18.53;100.00
25869;BME280;13688;53.154;18.136;2023-07-31T22:41:58;99805.38;;;18.59;100.00
25869;BME280;13688;53.154;18.136;2023-07-31T22:47:21;99805.09;;;18.69;100.00
25869;BME280;13688;53.154;18.136;2023-07-31T22:52:46;99794.84;;;18.71;100.00
25869;BME280;13688;53.154;18.136;2023-07-31T22:58:09;99799.27;;;18.72;100.00
25869;BME280;13688;53.154;18.136;2023-07-31T23:03:32;99797.76;;;18.70;100.00
25869;BME280;13688;53.154;18.136;2023-07-31T23:08:55;99794.00;;;18.71;100.00
25869;BME280;13688;53.154;18.136;2023-07-31T23:14:18;99785.75;;;18.64;100.00
25869;BME280;13688;53.154;18.136;2023-07-31T23:19:41;99783.39;;;18.61;100.00
25869;BME280;13688;53.154;18.136;2023-07-31T23:25:04;99776.27;;;18.60;100.00
25869;BME280;13688;53.154;18.136;2023-07-31T23:30:27;99769.78;;;18.61;100.00
25869;BME280;13688;53.154;18.136;2023-07-31T23:35:49;99761.17;;;18.57;100.00
25869;BME280;13688;53.154;18.136;2023-07-31T23:41:13;99758.00;;;18.54;100.00
25869;BME280;13688;53.154;18.136;2023-07-31T23:46:36;99763.81;;;18.51;100.00
25869;BME280;13688;53.154;18.136;2023-07-31T23:52:00;99766.53;;;18.51;100.00
25869;BME280;13688;53.154;18.136;2023-07-31T23:57:23;99764.86;;;18.50;100.00
